createdAt,value
2022-08-03T00:01:08.801Z,15.29
2022-08-03T00:06:22.442Z,15.29
2022-08-03T00:11:38.106Z,15.26
2022-08-03T00:16:59.218Z,15.23
2022-08-03T00:22:17.951Z,15.15
2022-08-03T00:27:35.327Z,15.12
2022-08-03T00:32:53.538Z,15.08
2022-08-03T00:38:13.123Z,15.02
2022-08-03T00:43:21.160Z,14.92
2022-08-03T00:48:36.647Z,14.87
2022-08-03T00:53:53.121Z,14.87
2022-08-03T00:59:01.952Z,14.91
2022-08-03T01:04:16.630Z,15.01
2022-08-03T01:09:46.262Z,15.13
2022-08-03T01:15:17.275Z,15.27
2022-08-03T01:20:24.131Z,15.28
2022-08-03T01:25:58.553Z,15.24
2022-08-03T01:31:27.453Z,15.21
2022-08-03T01:36:46.364Z,15.25
2022-08-03T01:41:55.192Z,15.26
2022-08-03T01:47:03.063Z,15.29
2022-08-03T01:52:09.404Z,15.27
2022-08-03T01:57:18.863Z,15.23
2022-08-03T02:02:36.808Z,15.23
2022-08-03T02:07:47.129Z,15.26
2022-08-03T02:13:14.315Z,15.28
2022-08-03T02:18:26.032Z,15.28
2022-08-03T02:23:32.654Z,15.31
2022-08-03T02:28:50.998Z,15.36
2022-08-03T02:33:58.962Z,15.39
2022-08-03T02:39:05.885Z,15.42
2022-08-03T02:44:21.465Z,15.45
2022-08-03T02:49:40.729Z,15.46
2022-08-03T02:55:16.560Z,15.45
2022-08-03T03:00:27.836Z,15.46
2022-08-03T03:05:51.745Z,15.48
2022-08-03T03:11:04.239Z,15.52
2022-08-03T03:16:14.690Z,15.57
2022-08-03T03:21:25.165Z,15.61
2022-08-03T03:26:51.864Z,15.65
2022-08-03T03:32:18.042Z,15.71
2022-08-03T03:37:23.944Z,15.78
2022-08-03T03:42:29.820Z,15.84
2022-08-03T03:47:38.247Z,15.89
2022-08-03T03:52:44.383Z,15.93
2022-08-03T03:57:50.245Z,15.98
2022-08-03T04:02:55.884Z,16.02
2022-08-03T04:08:20.485Z,16.04
2022-08-03T04:13:28.098Z,16.12
2022-08-03T04:18:39.903Z,16.24
2022-08-03T04:23:47.388Z,16.36
2022-08-03T04:29:04.590Z,16.48
2022-08-03T04:34:30.663Z,16.66
2022-08-03T04:39:56.942Z,16.93
2022-08-03T04:45:24.185Z,17.23
2022-08-03T04:50:30.103Z,17.47
2022-08-03T04:56:08.602Z,17.74
2022-08-03T05:01:14.237Z,17.99
2022-08-03T05:06:20.295Z,18.21
2022-08-03T05:11:36.505Z,18.45
2022-08-03T05:16:45.567Z,18.78
2022-08-03T05:21:51.293Z,19.06
2022-08-03T05:27:09.428Z,19.31
2022-08-03T05:32:16.306Z,19.52
2022-08-03T05:37:34.757Z,19.73
2022-08-03T05:42:43.881Z,19.87
2022-08-03T05:47:52.489Z,20.00
2022-08-03T05:52:59.148Z,20.13
2022-08-03T05:58:05.770Z,20.33
2022-08-03T06:03:31.621Z,20.56
2022-08-03T06:08:37.511Z,20.80
2022-08-03T06:13:46.418Z,21.04
2022-08-03T06:18:52.249Z,21.22
2022-08-03T06:24:18.396Z,21.68
2022-08-03T06:29:43.014Z,22.39
2022-08-03T06:34:52.153Z,23.07
2022-08-03T06:40:01.646Z,23.53
2022-08-03T06:45:11.502Z,24.01
2022-08-03T06:50:19.023Z,24.45
2022-08-03T06:55:29.888Z,24.88
2022-08-03T07:00:35.498Z,25.20
2022-08-03T07:05:53.790Z,25.53
2022-08-03T07:11:18.913Z,26.12
2022-08-03T07:19:03.717Z,27.95
2022-08-03T07:24:14.688Z,29.18
2022-08-03T07:29:24.560Z,30.49
2022-08-03T07:34:32.116Z,31.45
2022-08-03T07:39:39.366Z,32.02
2022-08-03T07:44:46.799Z,32.42
2022-08-03T07:49:55.387Z,32.01
2022-08-03T07:55:08.638Z,31.28
2022-08-03T08:00:20.968Z,30.72
2022-08-03T08:05:29.750Z,30.22
2022-08-03T08:10:40.216Z,30.15
2022-08-03T08:15:47.743Z,30.62
2022-08-03T08:20:55.505Z,30.92
2022-08-03T08:26:03.990Z,31.05
2022-08-03T08:31:11.760Z,31.08
2022-08-03T08:36:19.419Z,30.76
2022-08-03T08:41:32.113Z,30.25
2022-08-03T08:46:41.707Z,29.74
2022-08-03T08:52:00.797Z,29.15
2022-08-03T08:57:33.533Z,28.68
2022-08-03T09:02:46.150Z,28.38
2022-08-03T09:08:07.265Z,28.22
2022-08-03T09:13:14.790Z,28.02
2022-08-03T09:18:32.843Z,27.93
2022-08-03T09:24:02.325Z,27.92
2022-08-03T09:29:15.205Z,27.89
2022-08-03T09:34:34.370Z,27.93
2022-08-03T09:39:53.980Z,27.95
2022-08-03T09:45:04.458Z,27.94
2022-08-03T09:50:13.593Z,28.00
2022-08-03T09:56:34.146Z,28.15
2022-08-03T10:01:01.382Z,28.40
2022-08-03T10:06:20.588Z,28.35
2022-08-03T10:11:40.873Z,28.20
2022-08-03T10:17:02.721Z,28.14
2022-08-03T10:22:29.095Z,28.28
2022-08-03T10:27:39.174Z,28.31
2022-08-03T10:32:54.793Z,28.29
2022-08-03T10:38:05.221Z,28.35
2022-08-03T10:43:24.422Z,28.40
2022-08-03T10:48:33.217Z,28.47
2022-08-03T10:53:55.207Z,28.61
2022-08-03T10:59:03.901Z,28.50
2022-08-03T11:04:24.416Z,28.47
2022-08-03T11:09:44.047Z,28.47
2022-08-03T11:14:54.508Z,28.54
2022-08-03T11:20:02.061Z,28.60
2022-08-03T11:25:54.914Z,28.66
2022-08-03T11:30:44.347Z,28.96
2022-08-03T11:36:03.648Z,29.01
2022-08-03T11:41:45.084Z,28.94
2022-08-03T11:46:54.368Z,28.91
2022-08-03T11:52:27.038Z,28.84
2022-08-03T11:59:12.972Z,28.87
2022-08-03T12:03:13.915Z,28.97
2022-08-03T12:08:33.160Z,28.99
2022-08-03T12:14:28.888Z,29.13
2022-08-03T12:19:14.446Z,29.33
2022-08-03T12:24:28.538Z,29.43
2022-08-03T12:29:39.393Z,29.49
2022-08-03T12:34:50.671Z,29.49
2022-08-03T12:40:09.615Z,29.43
2022-08-03T12:45:26.565Z,29.39
2022-08-03T12:50:36.140Z,29.30
2022-08-03T12:55:57.868Z,29.35
2022-08-03T13:01:15.782Z,29.44
2022-08-03T13:06:27.462Z,29.54
2022-08-03T13:11:57.402Z,29.61
2022-08-03T13:17:10.616Z,29.65
2022-08-03T13:22:21.444Z,29.58
2022-08-03T13:28:04.664Z,29.49
2022-08-03T13:33:14.939Z,29.45
2022-08-03T13:38:43.288Z,29.45
2022-08-03T13:44:12.050Z,29.55
2022-08-03T13:49:24.034Z,29.69
2022-08-03T13:54:35.588Z,29.72
2022-08-03T13:59:51.677Z,29.91
2022-08-03T14:05:02.476Z,30.01
2022-08-03T14:10:12.408Z,30.00
2022-08-03T14:15:41.127Z,29.90
2022-08-03T14:20:53.064Z,29.82
2022-08-03T14:26:15.956Z,29.72
2022-08-03T14:32:10.439Z,29.62
2022-08-03T14:36:55.678Z,29.68
2022-08-03T14:42:03.188Z,29.80
2022-08-03T14:47:13.815Z,29.86
2022-08-03T14:52:21.578Z,29.84
2022-08-03T14:57:34.531Z,29.93
2022-08-03T15:02:45.279Z,30.03
2022-08-03T15:07:55.281Z,30.09
2022-08-03T15:13:04.849Z,30.06
2022-08-03T15:18:15.726Z,30.03
2022-08-03T15:23:23.263Z,30.07
2022-08-03T15:28:34.548Z,30.09
2022-08-03T15:33:56.829Z,30.11
2022-08-03T15:39:05.300Z,30.08
2022-08-03T15:44:19.742Z,29.97
2022-08-03T15:49:27.164Z,29.85
2022-08-03T15:54:37.175Z,29.75
2022-08-03T15:59:44.612Z,29.68
2022-08-03T16:05:04.227Z,29.64
2022-08-03T16:10:30.992Z,29.62
2022-08-03T16:15:41.630Z,29.49
2022-08-03T16:20:52.515Z,29.42
2022-08-03T16:26:00.159Z,29.37
2022-08-03T16:31:17.279Z,29.30
2022-08-03T16:36:24.794Z,29.22
2022-08-03T16:42:00.541Z,29.19
2022-08-03T16:47:09.361Z,29.14
2022-08-03T16:52:29.984Z,29.07
2022-08-03T16:57:58.372Z,28.98
2022-08-03T17:03:24.120Z,28.93
2022-08-03T17:08:43.158Z,28.90
2022-08-03T17:14:09.885Z,28.88
2022-08-03T17:19:25.334Z,28.83
2022-08-03T17:24:41.584Z,28.79
2022-08-03T17:30:01.591Z,28.70
2022-08-03T17:35:36.746Z,28.61
2022-08-03T17:41:11.745Z,28.50
2022-08-03T17:46:25.368Z,28.42
2022-08-03T17:51:50.053Z,28.34
2022-08-03T17:57:22.552Z,28.24
2022-08-03T18:03:10.068Z,28.12
2022-08-03T18:08:30.102Z,28.00
2022-08-03T18:14:09.926Z,27.87
2022-08-03T18:20:02.858Z,27.74
2022-08-03T18:25:00.640Z,27.62
2022-08-03T18:30:16.423Z,27.50
2022-08-03T18:35:25.322Z,27.37
2022-08-03T18:40:34.572Z,27.21
2022-08-03T18:46:30.143Z,27.02
2022-08-03T18:52:13.104Z,26.81
2022-08-03T18:57:46.657Z,26.62
2022-08-03T19:03:05.235Z,26.46
2022-08-03T19:08:33.646Z,26.29
2022-08-03T19:13:50.889Z,26.11
2022-08-03T19:19:22.648Z,25.93
2022-08-03T19:24:38.848Z,25.75
2022-08-03T19:29:58.489Z,25.59
2022-08-03T19:35:19.062Z,25.44
2022-08-03T19:41:07.390Z,25.24
2022-08-03T19:46:30.146Z,25.06
2022-08-03T19:51:59.006Z,24.84
2022-08-03T19:57:17.802Z,24.61
2022-08-03T20:02:38.358Z,24.40
2022-08-03T20:08:00.441Z,24.19
2022-08-03T20:13:12.067Z,24.04
2022-08-03T20:18:33.655Z,23.93
2022-08-03T20:24:01.924Z,23.81
2022-08-03T20:30:04.880Z,23.66
2022-08-03T20:34:55.436Z,23.51
2022-08-03T20:40:08.346Z,23.36
2022-08-03T20:45:59.013Z,23.22
2022-08-03T20:50:54.567Z,23.11
2022-08-03T20:56:16.995Z,22.98
2022-08-03T21:01:36.224Z,22.87
2022-08-03T21:12:54.070Z,22.65
2022-08-03T21:18:27.066Z,22.54
2022-08-03T21:23:49.999Z,22.46
2022-08-03T21:29:03.242Z,22.38
2022-08-03T21:34:21.915Z,22.28
2022-08-03T21:39:38.669Z,22.20
2022-08-03T21:45:02.070Z,22.10
2022-08-03T21:50:15.326Z,22.02
2022-08-03T21:55:46.551Z,21.90
2022-08-03T22:01:16.773Z,21.83
2022-08-03T22:06:27.063Z,21.79
2022-08-03T22:11:38.449Z,21.75
2022-08-03T22:16:53.685Z,21.71
2022-08-03T22:22:08.010Z,21.65
2022-08-03T22:27:40.411Z,21.59
2022-08-03T22:33:11.968Z,21.55
2022-08-03T22:38:23.068Z,21.49
2022-08-03T22:43:38.233Z,21.43
2022-08-03T22:49:07.940Z,21.36
2022-08-03T22:54:26.262Z,21.30
2022-08-03T22:59:41.330Z,21.24
2022-08-03T23:06:00.990Z,21.20
2022-08-03T23:11:09.052Z,21.17
2022-08-03T23:16:28.987Z,21.13
2022-08-03T23:22:00.333Z,21.07
2022-08-03T23:27:18.884Z,20.96
2022-08-03T23:32:45.373Z,20.87
2022-08-03T23:38:21.984Z,20.81
2022-08-03T23:43:52.098Z,20.78
2022-08-03T23:49:22.797Z,20.75
2022-08-03T23:55:02.343Z,20.71
